createdAt,value
2022-11-02T00:01:59.208Z,17.80
2022-11-02T00:04:26.963Z,16.90
2022-11-02T00:06:54.679Z,16.20
2022-11-02T00:09:22.391Z,15.00
2022-11-02T00:11:50.384Z,13.90
2022-11-02T00:14:18.235Z,15.10
2022-11-02T00:16:46.403Z,15.70
2022-11-02T00:19:14.686Z,16.40
2022-11-02T00:21:42.760Z,15.60
2022-11-02T00:24:12.692Z,17.30
2022-11-02T00:26:40.543Z,15.60
2022-11-02T00:29:08.614Z,17.70
2022-11-02T00:31:36.640Z,14.50
2022-11-02T00:34:04.459Z,13.50
2022-11-02T00:36:32.278Z,17.30
2022-11-02T00:39:00.146Z,14.60
2022-11-02T00:41:27.927Z,16.60
2022-11-02T00:43:55.711Z,17.20
2022-11-02T00:46:23.451Z,17.50
2022-11-02T00:48:51.505Z,15.70
2022-11-02T00:51:19.536Z,14.90
2022-11-02T00:53:47.703Z,16.20
2022-11-02T00:56:15.673Z,16.50
2022-11-02T00:58:43.712Z,19.60
2022-11-02T01:01:12.641Z,28.60
2022-11-02T01:03:40.847Z,22.10
2022-11-02T01:06:13.894Z,20.40
2022-11-02T01:08:42.380Z,18.90
2022-11-02T01:11:16.722Z,20.50
2022-11-02T01:13:46.003Z,16.60
2022-11-02T01:16:15.467Z,19.10
2022-11-02T01:18:44.008Z,18.50
2022-11-02T01:21:11.816Z,19.20
2022-11-02T01:23:40.540Z,17.10
2022-11-02T01:26:09.842Z,17.00
2022-11-02T01:28:38.131Z,19.00
2022-11-02T01:31:07.257Z,17.20
2022-11-02T01:33:36.441Z,19.20
2022-11-02T01:36:06.853Z,20.40
2022-11-02T01:38:34.655Z,18.70
2022-11-02T01:41:02.443Z,19.60
2022-11-02T01:43:32.830Z,20.90
2022-11-02T01:46:19.312Z,20.40
2022-11-02T01:48:53.275Z,18.40
2022-11-02T01:51:27.107Z,21.50
2022-11-02T01:54:00.236Z,18.50
2022-11-02T01:56:33.089Z,21.30
2022-11-02T01:59:06.592Z,22.70
2022-11-02T02:01:34.840Z,21.60
2022-11-02T02:04:03.334Z,22.20
2022-11-02T02:06:36.545Z,22.80
2022-11-02T02:09:08.091Z,22.60
2022-11-02T02:11:38.864Z,24.70
2022-11-02T02:14:19.941Z,20.80
2022-11-02T02:16:54.288Z,20.60
2022-11-02T02:19:34.346Z,21.20
2022-11-02T02:22:09.624Z,19.80
2022-11-02T02:24:54.101Z,22.40
2022-11-02T02:27:35.145Z,21.70
2022-11-02T02:30:09.859Z,21.70
2022-11-02T02:32:41.341Z,24.00
2022-11-02T02:35:25.828Z,21.50
2022-11-02T02:37:53.553Z,24.30
2022-11-02T02:40:27.539Z,23.60
2022-11-02T02:43:04.244Z,23.60
2022-11-02T02:45:52.693Z,22.90
2022-11-02T02:48:23.448Z,20.90
2022-11-02T02:50:57.133Z,21.40
2022-11-02T02:53:32.592Z,23.50
2022-11-02T02:56:02.597Z,21.00
2022-11-02T02:58:38.897Z,21.60
2022-11-02T03:01:11.102Z,25.00
2022-11-02T03:03:42.434Z,22.00
2022-11-02T03:06:15.980Z,20.30
2022-11-02T03:08:58.638Z,22.20
2022-11-02T03:11:28.201Z,23.10
2022-11-02T03:14:12.519Z,23.60
2022-11-02T03:16:55.808Z,21.60
2022-11-02T03:19:36.919Z,23.20
2022-11-02T03:22:16.640Z,19.80
2022-11-02T03:24:55.555Z,23.90
2022-11-02T03:27:51.164Z,21.70
2022-11-02T03:30:22.542Z,21.50
2022-11-02T03:33:07.463Z,25.60
2022-11-02T03:35:51.408Z,24.50
2022-11-02T03:38:22.347Z,22.80
2022-11-02T03:40:54.326Z,20.70
2022-11-02T03:43:25.179Z,22.90
2022-11-02T03:46:02.180Z,23.10
2022-11-02T03:48:36.152Z,23.10
2022-11-02T03:51:10.568Z,23.90
2022-11-02T03:53:53.505Z,25.00
2022-11-02T03:56:45.623Z,28.00
2022-11-02T03:59:14.536Z,26.60
2022-11-02T04:01:46.434Z,27.40
2022-11-02T04:04:14.772Z,25.10
2022-11-02T04:06:47.019Z,20.60
2022-11-02T04:09:15.576Z,24.60
2022-11-02T04:12:02.675Z,28.10
2022-11-02T04:14:40.215Z,26.40
2022-11-02T04:17:32.356Z,44.90
2022-11-02T04:20:01.986Z,30.40
2022-11-02T04:22:49.100Z,32.60
2022-11-02T04:25:19.345Z,29.30
2022-11-02T04:28:10.110Z,26.50
2022-11-02T04:30:50.423Z,27.80
2022-11-02T04:33:35.431Z,25.00
2022-11-02T04:36:15.490Z,26.40
2022-11-02T04:38:44.350Z,25.70
2022-11-02T04:41:41.263Z,27.00
2022-11-02T04:44:29.251Z,27.70
2022-11-02T04:47:03.428Z,25.60
2022-11-02T04:49:33.171Z,27.30
2022-11-02T04:52:01.267Z,26.10
2022-11-02T04:54:29.802Z,23.90
2022-11-02T04:57:01.002Z,25.50
2022-11-02T04:59:29.368Z,23.40
2022-11-02T05:01:57.497Z,24.90
2022-11-02T05:04:25.629Z,27.50
2022-11-02T05:06:56.383Z,24.60
2022-11-02T05:09:28.135Z,21.70
2022-11-02T05:11:56.170Z,23.60
2022-11-02T05:14:23.996Z,31.00
2022-11-02T05:16:52.260Z,26.00
2022-11-02T05:19:20.057Z,28.00
2022-11-02T05:21:48.809Z,27.10
2022-11-02T05:24:16.651Z,25.30
2022-11-02T05:26:44.475Z,27.40
2022-11-02T05:29:13.445Z,25.10
2022-11-02T05:31:41.768Z,23.50
2022-11-02T05:34:09.507Z,23.00
2022-11-02T05:36:38.297Z,25.60
2022-11-02T05:39:06.132Z,24.40
2022-11-02T05:41:34.173Z,27.00
2022-11-02T05:44:02.474Z,23.70
2022-11-02T05:46:31.454Z,22.30
2022-11-02T05:48:59.183Z,26.00
2022-11-02T05:51:26.920Z,23.30
2022-11-02T05:53:55.006Z,21.90
2022-11-02T05:56:25.212Z,24.30
2022-11-02T05:58:55.149Z,20.40
2022-11-02T06:01:22.958Z,24.40
2022-11-02T06:03:53.754Z,21.50
2022-11-02T06:06:22.328Z,23.90
2022-11-02T06:08:50.069Z,24.50
2022-11-02T06:11:17.910Z,29.70
2022-11-02T06:13:50.421Z,34.30
2022-11-02T06:16:23.099Z,30.60
2022-11-02T06:18:51.862Z,28.80
2022-11-02T06:21:19.691Z,28.50
2022-11-02T06:23:48.663Z,29.20
2022-11-02T06:26:16.514Z,30.60
2022-11-02T06:28:44.361Z,29.10
2022-11-02T06:31:13.312Z,38.70
2022-11-02T06:33:41.056Z,31.20
2022-11-02T06:36:09.202Z,34.10
2022-11-02T06:38:38.722Z,25.10
2022-11-02T06:41:06.984Z,26.10
2022-11-02T06:43:38.619Z,23.20
2022-11-02T06:46:06.688Z,22.70
2022-11-02T06:48:35.545Z,23.60
2022-11-02T06:51:05.301Z,29.10
2022-11-02T06:53:33.932Z,27.70
2022-11-02T06:56:02.367Z,29.70
2022-11-02T06:58:30.247Z,36.20
2022-11-02T07:01:00.730Z,35.00
2022-11-02T07:03:30.291Z,39.50
2022-11-02T07:05:58.439Z,33.00
2022-11-02T07:08:27.668Z,38.80
2022-11-02T07:10:56.522Z,39.30
2022-11-02T07:13:24.644Z,53.40
2022-11-02T07:15:54.273Z,25.50
2022-11-02T07:18:22.865Z,22.90
2022-11-02T07:20:50.650Z,19.60
2022-11-02T07:23:18.583Z,19.80
2022-11-02T07:25:46.518Z,16.00
2022-11-02T07:28:14.326Z,21.00
2022-11-02T07:30:42.235Z,16.10
2022-11-02T07:33:10.204Z,15.90
2022-11-02T07:35:38.348Z,16.10
2022-11-02T07:38:07.796Z,16.00
2022-11-02T07:40:36.840Z,22.20
2022-11-02T07:43:06.383Z,19.70
2022-11-02T07:46:04.169Z,21.00
2022-11-02T07:48:32.164Z,15.60
2022-11-02T07:51:00.066Z,19.00
2022-11-02T07:53:28.110Z,21.40
2022-11-02T07:55:55.791Z,18.50
2022-11-02T07:58:23.538Z,19.00
2022-11-02T08:00:55.858Z,18.40
2022-11-02T08:03:27.409Z,25.00
2022-11-02T08:06:02.093Z,16.20
2022-11-02T08:08:31.028Z,14.70
2022-11-02T08:11:07.110Z,14.30
2022-11-02T08:16:03.557Z,14.90
2022-11-02T08:18:51.261Z,14.70
2022-11-02T08:21:19.141Z,16.40
2022-11-02T08:23:46.955Z,14.90
2022-11-02T08:26:14.750Z,14.50
2022-11-02T08:28:42.654Z,15.30
2022-11-02T08:31:15.981Z,14.20
2022-11-02T08:33:44.956Z,12.20
2022-11-02T08:36:12.871Z,11.80
2022-11-02T08:38:40.745Z,12.80
2022-11-02T08:41:08.665Z,16.00
2022-11-02T08:43:36.517Z,15.20
2022-11-02T08:46:19.658Z,15.50
2022-11-02T08:48:47.733Z,13.50
2022-11-02T08:51:15.812Z,15.20
2022-11-02T08:53:48.625Z,16.50
2022-11-02T08:56:19.429Z,14.00
2022-11-02T08:58:47.267Z,14.00
2022-11-02T09:01:15.246Z,15.60
2022-11-02T09:03:43.152Z,15.70
2022-11-02T09:06:10.960Z,14.60
2022-11-02T09:08:38.834Z,12.10
2022-11-02T09:11:07.088Z,13.60
2022-11-02T09:13:34.939Z,18.30
2022-11-02T09:16:03.259Z,12.60
2022-11-02T09:18:31.435Z,13.40
2022-11-02T09:21:05.602Z,12.60
2022-11-02T09:23:33.824Z,17.00
2022-11-02T09:26:01.694Z,10.20
2022-11-02T09:28:29.556Z,13.90
2022-11-02T09:30:57.364Z,11.50
2022-11-02T09:33:25.191Z,11.90
2022-11-02T09:35:53.262Z,12.20
2022-11-02T09:38:21.130Z,10.90
2022-11-02T09:41:02.455Z,13.90
2022-11-02T09:44:03.777Z,11.50
2022-11-02T09:46:34.499Z,12.10
2022-11-02T09:49:11.992Z,12.90
2022-11-02T09:51:47.401Z,13.80
2022-11-02T09:54:30.973Z,15.40
2022-11-02T09:57:04.591Z,12.10
2022-11-02T09:59:33.261Z,10.30
2022-11-02T10:02:19.924Z,11.20
2022-11-02T10:05:00.240Z,13.90
2022-11-02T10:07:52.620Z,10.80
2022-11-02T10:10:27.632Z,15.00
2022-11-02T10:12:58.647Z,12.60
2022-11-02T10:15:40.401Z,13.30
2022-11-02T10:18:18.138Z,11.40
2022-11-02T10:20:49.848Z,11.90
2022-11-02T10:23:29.130Z,12.80
2022-11-02T10:25:57.063Z,12.70
2022-11-02T10:28:30.667Z,11.70
2022-11-02T10:30:58.921Z,12.30
2022-11-02T10:33:28.393Z,12.40
2022-11-02T10:36:23.682Z,12.40
2022-11-02T10:39:05.278Z,10.50
2022-11-02T10:41:52.442Z,11.80
2022-11-02T10:44:45.047Z,14.30
2022-11-02T10:47:20.611Z,12.90
2022-11-02T10:50:25.696Z,13.00
2022-11-02T10:52:53.529Z,12.50
2022-11-02T10:55:49.707Z,16.50
2022-11-02T10:58:21.489Z,12.10
2022-11-02T11:00:49.847Z,17.40
2022-11-02T11:03:19.075Z,11.50
2022-11-02T11:05:49.701Z,8.10
2022-11-02T11:08:39.044Z,14.00
2022-11-02T11:11:18.950Z,13.10
2022-11-02T11:16:50.257Z,12.20
2022-11-02T11:22:33.104Z,12.50
2022-11-02T11:25:13.311Z,14.50
2022-11-02T11:27:54.919Z,11.10
2022-11-02T11:33:23.475Z,12.00
2022-11-02T11:35:51.939Z,11.90
2022-11-02T11:38:22.807Z,13.80
2022-11-02T11:40:54.550Z,12.00
2022-11-02T11:43:26.913Z,11.30
2022-11-02T11:46:05.833Z,11.10
2022-11-02T11:48:38.237Z,13.30
2022-11-02T11:51:25.127Z,10.10
2022-11-02T11:54:15.166Z,12.70
2022-11-02T11:56:42.997Z,9.10
2022-11-02T11:59:28.192Z,10.80
2022-11-02T12:01:58.777Z,9.00
2022-11-02T12:04:28.447Z,11.40
2022-11-02T12:07:45.694Z,10.60
2022-11-02T12:10:32.577Z,10.40
2022-11-02T12:13:20.640Z,14.90
2022-11-02T12:16:17.650Z,10.30
2022-11-02T12:19:07.595Z,12.10
2022-11-02T12:21:46.047Z,9.40
2022-11-02T12:24:39.044Z,10.30
2022-11-02T12:27:23.043Z,11.80
2022-11-02T12:30:09.578Z,15.10
2022-11-02T12:32:50.244Z,11.00
2022-11-02T12:35:43.255Z,11.60
2022-11-02T12:38:41.940Z,10.70
2022-11-02T12:41:22.440Z,11.70
2022-11-02T12:43:58.388Z,10.80
2022-11-02T12:49:36.531Z,10.30
2022-11-02T12:52:13.631Z,8.60
2022-11-02T12:54:48.125Z,15.20
2022-11-02T12:57:21.068Z,11.30
2022-11-02T12:59:55.250Z,12.70
2022-11-02T13:02:29.450Z,10.10
2022-11-02T13:05:17.781Z,9.00
2022-11-02T13:07:59.534Z,12.10
2022-11-02T13:10:43.055Z,13.90
2022-11-02T13:13:16.469Z,10.80
2022-11-02T13:15:47.387Z,9.50
2022-11-02T13:18:24.051Z,9.80
2022-11-02T13:20:55.709Z,7.20
2022-11-02T13:23:46.518Z,7.50
2022-11-02T13:26:27.507Z,7.70
2022-11-02T13:28:57.245Z,14.60
2022-11-02T13:31:46.748Z,10.50
2022-11-02T13:34:41.481Z,14.10
2022-11-02T13:37:35.927Z,7.10
2022-11-02T13:40:28.262Z,11.00
2022-11-02T13:43:23.278Z,10.40
2022-11-02T13:46:40.031Z,11.70
2022-11-02T13:49:19.752Z,10.20
2022-11-02T13:51:59.615Z,10.40
2022-11-02T13:54:30.328Z,11.20
2022-11-02T13:56:59.065Z,6.50
2022-11-02T13:59:33.399Z,9.50
2022-11-02T14:02:03.609Z,10.70
2022-11-02T14:04:43.095Z,8.20
2022-11-02T14:07:28.065Z,7.70
2022-11-02T14:10:08.751Z,7.90
2022-11-02T14:12:43.525Z,10.20
2022-11-02T14:15:14.170Z,9.40
2022-11-02T14:17:54.782Z,5.70
2022-11-02T14:20:44.679Z,10.50
2022-11-02T14:23:14.274Z,11.50
2022-11-02T14:25:53.504Z,10.30
2022-11-02T14:28:28.962Z,9.00
2022-11-02T14:31:06.088Z,13.30
2022-11-02T14:33:52.949Z,9.00
2022-11-02T14:36:42.152Z,11.70
2022-11-02T14:39:29.052Z,9.30
2022-11-02T14:41:57.123Z,12.80
2022-11-02T14:44:37.107Z,10.20
2022-11-02T14:47:17.430Z,10.60
2022-11-02T14:49:56.257Z,10.20
2022-11-02T14:52:24.089Z,6.80
2022-11-02T14:55:08.265Z,13.10
2022-11-02T14:57:40.681Z,13.10
2022-11-02T15:00:47.657Z,11.50
2022-11-02T15:03:25.333Z,12.20
2022-11-02T15:06:03.211Z,10.70
2022-11-02T15:08:36.302Z,11.60
2022-11-02T15:11:41.946Z,10.60
2022-11-02T15:14:39.019Z,16.30
2022-11-02T15:17:13.029Z,13.40
2022-11-02T15:19:46.436Z,16.80
2022-11-02T15:22:32.677Z,13.90
2022-11-02T15:25:07.283Z,10.30
2022-11-02T15:27:41.343Z,14.20
2022-11-02T15:30:29.005Z,13.80
2022-11-02T15:33:02.822Z,11.20
2022-11-02T15:35:37.110Z,19.00
2022-11-02T15:38:30.468Z,13.40
2022-11-02T15:41:08.000Z,31.10
2022-11-02T15:44:04.067Z,26.80
2022-11-02T15:46:45.351Z,22.50
2022-11-02T15:49:32.125Z,19.40
2022-11-02T15:52:25.129Z,16.60
2022-11-02T15:54:55.607Z,17.70
2022-11-02T15:57:36.500Z,22.30
2022-11-02T16:00:30.508Z,24.20
2022-11-02T16:03:06.665Z,38.80
2022-11-02T16:11:21.062Z,69.60
2022-11-02T16:14:07.577Z,55.30
2022-11-02T16:16:46.169Z,36.70
2022-11-02T16:19:20.326Z,33.60
2022-11-02T16:21:48.254Z,27.90
2022-11-02T16:24:15.248Z,49.30
2022-11-02T16:26:44.102Z,59.40
2022-11-02T16:29:11.321Z,65.30
2022-11-02T16:31:40.315Z,68.10
2022-11-02T16:34:29.937Z,39.40
2022-11-02T16:36:59.384Z,29.30
2022-11-02T16:39:37.957Z,26.00
2022-11-02T16:42:15.068Z,73.90
2022-11-02T16:44:42.760Z,93.00
2022-11-02T16:47:09.334Z,74.60
2022-11-02T16:49:57.436Z,60.30
2022-11-02T16:52:35.591Z,31.10
2022-11-02T16:55:22.236Z,22.30
2022-11-02T16:57:48.868Z,20.60
2022-11-02T17:00:19.699Z,24.60
2022-11-02T17:02:47.029Z,25.20
2022-11-02T17:05:22.878Z,34.40
2022-11-02T17:10:33.875Z,103.60
2022-11-02T17:13:02.354Z,58.00
2022-11-02T17:15:31.758Z,31.70
2022-11-02T17:18:07.418Z,21.70
2022-11-02T17:23:07.235Z,18.50
2022-11-02T17:25:36.283Z,28.10
2022-11-02T17:28:24.088Z,30.30
2022-11-02T17:30:52.233Z,23.40
2022-11-02T17:33:24.161Z,202.30
2022-11-02T17:35:53.098Z,95.10
2022-11-02T17:38:25.971Z,84.40
2022-11-02T17:40:53.774Z,48.80
2022-11-02T17:43:21.851Z,38.00
2022-11-02T17:45:58.956Z,36.30
2022-11-02T17:48:30.351Z,52.10
2022-11-02T17:50:59.218Z,80.20
2022-11-02T17:53:26.128Z,62.10
2022-11-02T17:55:53.834Z,56.70
2022-11-02T17:58:20.255Z,52.10
2022-11-02T18:00:46.824Z,40.90
2022-11-02T18:03:16.664Z,52.20
2022-11-02T18:05:46.631Z,53.10
2022-11-02T18:08:16.686Z,47.80
2022-11-02T18:10:45.875Z,43.40
2022-11-02T18:13:14.383Z,236.20
2022-11-02T18:15:41.246Z,65.90
2022-11-02T18:18:08.173Z,138.20
2022-11-02T18:20:40.177Z,96.60
2022-11-02T18:23:14.749Z,127.50
2022-11-02T18:25:41.500Z,87.80
2022-11-02T18:28:08.160Z,95.40
2022-11-02T18:30:34.897Z,136.90
2022-11-02T18:33:02.264Z,53.10
2022-11-02T18:35:28.782Z,106.30
2022-11-02T18:37:55.221Z,66.30
2022-11-02T18:40:21.849Z,47.00
2022-11-02T18:42:49.248Z,34.10
2022-11-02T18:45:16.188Z,70.80
2022-11-02T18:47:42.858Z,50.00
2022-11-02T18:50:11.782Z,111.00
2022-11-02T18:52:39.673Z,114.30
2022-11-02T18:55:06.702Z,47.20
2022-11-02T18:57:33.439Z,50.00
2022-11-02T19:00:02.204Z,112.30
2022-11-02T19:02:29.487Z,60.80
2022-11-02T19:04:56.280Z,97.10
2022-11-02T19:07:41.462Z,51.20
2022-11-02T19:10:09.207Z,135.70
2022-11-02T19:12:35.910Z,47.50
2022-11-02T19:15:02.490Z,101.70
2022-11-02T19:17:29.287Z,84.30
2022-11-02T19:19:56.554Z,70.10
2022-11-02T19:22:25.128Z,37.40
2022-11-02T19:24:52.000Z,45.60
2022-11-02T19:27:23.528Z,28.20
2022-11-02T19:29:50.734Z,24.80
2022-11-02T19:32:18.091Z,28.00
2022-11-02T19:34:45.138Z,21.50
2022-11-02T19:37:12.316Z,24.90
2022-11-02T19:39:39.064Z,21.30
2022-11-02T19:42:06.741Z,22.20
2022-11-02T19:44:35.985Z,19.40
2022-11-02T19:47:07.557Z,29.80
2022-11-02T19:49:33.933Z,21.80
2022-11-02T19:52:00.725Z,24.10
2022-11-02T19:54:27.258Z,27.00
2022-11-02T19:56:53.768Z,23.30
2022-11-02T19:59:20.255Z,24.10
2022-11-02T20:01:47.887Z,28.80
2022-11-02T20:04:14.585Z,93.70
2022-11-02T20:06:43.012Z,30.20
2022-11-02T20:09:15.708Z,224.70
2022-11-02T20:11:44.541Z,284.80
2022-11-02T20:14:12.857Z,82.40
2022-11-02T20:16:39.908Z,68.50
2022-11-02T20:19:07.258Z,53.60
2022-11-02T20:21:38.210Z,106.20
2022-11-02T20:24:08.256Z,210.30
2022-11-02T20:26:36.085Z,92.10
2022-11-02T20:29:04.781Z,32.70
2022-11-02T20:31:36.871Z,61.40
2022-11-02T20:34:05.784Z,25.30
2022-11-02T20:36:34.072Z,73.40
2022-11-02T20:39:02.754Z,37.20
2022-11-02T20:41:29.215Z,22.80
2022-11-02T20:43:56.381Z,37.50
2022-11-02T20:46:44.505Z,48.60
2022-11-02T20:49:21.846Z,24.00
2022-11-02T20:51:50.347Z,24.40
2022-11-02T20:54:18.702Z,24.00
2022-11-02T20:56:45.477Z,133.10
2022-11-02T20:59:12.054Z,38.80
2022-11-02T21:01:38.576Z,29.80
2022-11-02T21:04:05.360Z,35.70
2022-11-02T21:06:31.869Z,27.10
2022-11-02T21:08:59.942Z,27.10
2022-11-02T21:11:45.346Z,25.40
2022-11-02T21:14:11.777Z,24.70
2022-11-02T21:16:38.419Z,25.60
2022-11-02T21:19:04.926Z,30.70
2022-11-02T21:21:31.526Z,22.60
2022-11-02T21:23:57.936Z,58.00
2022-11-02T21:26:24.419Z,35.30
2022-11-02T21:28:50.882Z,26.50
2022-11-02T21:33:48.248Z,49.30
2022-11-02T21:36:16.803Z,43.50
2022-11-02T21:38:48.017Z,76.40
2022-11-02T21:41:21.182Z,53.90
2022-11-02T21:43:51.137Z,56.30
2022-11-02T21:46:18.787Z,94.20
2022-11-02T21:48:45.250Z,136.40
2022-11-02T21:51:18.976Z,53.00
2022-11-02T21:53:47.090Z,50.60
2022-11-02T21:56:16.332Z,38.60
2022-11-02T21:58:46.125Z,33.50
2022-11-02T22:01:42.304Z,33.50
2022-11-02T22:04:11.358Z,30.50
2022-11-02T22:06:38.290Z,26.60
2022-11-02T22:09:07.074Z,23.90
2022-11-02T22:11:34.420Z,27.30
2022-11-02T22:14:01.818Z,26.70
2022-11-02T22:16:37.071Z,31.10
2022-11-02T22:19:11.680Z,25.40
2022-11-02T22:21:40.671Z,25.40
2022-11-02T22:24:08.460Z,29.90
2022-11-02T22:26:36.638Z,26.00
2022-11-02T22:29:04.011Z,26.40
2022-11-02T22:31:33.749Z,29.00
2022-11-02T22:34:01.569Z,23.00
2022-11-02T22:36:31.928Z,26.80
2022-11-02T22:39:00.174Z,19.80
2022-11-02T22:41:47.056Z,20.90
2022-11-02T22:44:20.310Z,23.50
2022-11-02T22:46:49.123Z,24.00
2022-11-02T22:49:17.494Z,24.20
2022-11-02T22:51:46.440Z,27.20
2022-11-02T22:54:15.541Z,25.20
2022-11-02T22:56:43.714Z,29.90
2022-11-02T22:59:11.031Z,24.80
2022-11-02T23:01:38.448Z,25.60
2022-11-02T23:04:06.289Z,27.50
2022-11-02T23:06:33.549Z,31.50
2022-11-02T23:09:00.798Z,31.60
2022-11-02T23:11:30.555Z,24.80
2022-11-02T23:13:58.246Z,28.70
2022-11-02T23:16:29.417Z,28.50
2022-11-02T23:19:22.075Z,30.80
2022-11-02T23:22:22.785Z,35.60
2022-11-02T23:25:11.590Z,33.40
2022-11-02T23:28:17.095Z,29.60
2022-11-02T23:31:02.501Z,28.60
2022-11-02T23:33:35.577Z,29.20
2022-11-02T23:36:13.398Z,29.30
2022-11-02T23:39:00.760Z,32.40
2022-11-02T23:41:28.751Z,33.10
2022-11-02T23:44:10.875Z,28.70
2022-11-02T23:46:42.575Z,25.30
2022-11-02T23:49:09.785Z,30.70
2022-11-02T23:51:55.421Z,31.60
2022-11-02T23:54:40.905Z,27.90
2022-11-02T23:57:07.322Z,30.30
2022-11-02T23:59:33.859Z,36.00
